Time;durP1;ratioP1;P1;durP2;ratioP2;P2;SDS_P1;SDS_P2;PMS_P1;PMS_P2;Temp;Humidity;BMP_temperature;BMP_pressure;BME280_temperature;BME280_humidity;BME280_pressure;Samples;Min_cycle;Max_cycle;Signal;HPM_P1;HPM_P2
2022/08/17 00:00:49;;;;;;;38.10;28.20;;;;;;;;;;5011354;28;20157;-65
2022/08/17 00:03:20;;;;;;;37.42;27.58;;;;;;;;;;5008842;28;20050;-65
2022/08/17 00:05:54;;;;;;;37.60;27.20;;;;;;;;;;5013502;28;20030;-65
2022/08/17 00:08:26;;;;;;;38.72;28.73;;;;;;;;;;5011684;28;20034;-65
2022/08/17 00:10:53;;;;;;;37.47;28.30;;;;;;;;;;5012850;28;20057;-65
2022/08/17 00:13:26;;;;;;;39.75;29.15;;;;;;;;;;5005238;28;20046;-65
2022/08/17 00:15:54;;;;;;;38.15;28.83;;;;;;;;;;5012807;28;20046;-65
2022/08/17 00:18:20;;;;;;;38.42;29.30;;;;;;;;;;5011808;28;20407;-65
2022/08/17 00:20:46;;;;;;;42.47;30.83;;;;;;;;;;5011643;28;20042;-65
2022/08/17 00:23:15;;;;;;;39.80;31.27;;;;;;;;;;5010992;28;20038;-65
2022/08/17 00:25:41;;;;;;;41.33;31.50;;;;;;;;;;5012209;28;20045;-65
2022/08/17 00:28:07;;;;;;;44.42;31.83;;;;;;;;;;5012456;28;20423;-65
2022/08/17 00:30:34;;;;;;;42.63;31.63;;;;;;;;;;5012231;28;20510;-65
2022/08/17 00:33:06;;;;;;;43.05;32.45;;;;;;;;;;5013224;28;20053;-65
2022/08/17 00:35:33;;;;;;;46.95;33.58;;;;;;;;;;5013699;28;20523;-65
2022/08/17 00:37:59;;;;;;;43.25;32.22;;;;;;;;;;5012475;28;20041;-65
2022/08/17 00:40:25;;;;;;;46.10;34.03;;;;;;;;;;5000750;28;20042;-65
2022/08/17 00:42:52;;;;;;;40.97;30.52;;;;;;;;;;5011662;28;20069;-64
2022/08/17 00:45:19;;;;;;;41.88;31.02;;;;;;;;;;5012267;28;20042;-64
2022/08/17 00:47:45;;;;;;;50.10;34.70;;;;;;;;;;5005850;28;20488;-65
2022/08/17 00:50:14;;;;;;;48.22;35.08;;;;;;;;;;5005392;28;20046;-65
2022/08/17 00:52:45;;;;;;;46.75;34.97;;;;;;;;;;5012533;28;20111;-65
2022/08/17 00:55:11;;;;;;;48.22;33.92;;;;;;;;;;5013280;28;20037;-65
2022/08/17 00:57:39;;;;;;;48.20;34.75;;;;;;;;;;5010968;28;20491;-65
2022/08/17 01:00:09;;;;;;;49.42;36.53;;;;;;;;;;5003121;28;20053;-65
2022/08/17 01:02:41;;;;;;;52.95;35.60;;;;;;;;;;5007977;28;20121;-65
2022/08/17 01:05:09;;;;;;;46.38;35.17;;;;;;;;;;5008741;28;20511;-65
2022/08/17 01:07:35;;;;;;;48.38;34.72;;;;;;;;;;5007212;28;20098;-65
2022/08/17 01:10:03;;;;;;;47.63;34.67;;;;;;;;;;5008437;28;20045;-65
2022/08/17 01:12:30;;;;;;;46.47;35.10;;;;;;;;;;5012014;28;20042;-65
2022/08/17 01:14:56;;;;;;;47.30;34.17;;;;;;;;;;5010312;28;20042;-65
2022/08/17 01:17:22;;;;;;;45.85;33.85;;;;;;;;;;5009299;28;20071;-65
2022/08/17 01:19:48;;;;;;;45.67;34.85;;;;;;;;;;5012416;28;20561;-65
2022/08/17 01:22:21;;;;;;;52.55;35.55;;;;;;;;;;5011826;28;20042;-65
2022/08/17 01:24:50;;;;;;;41.95;31.30;;;;;;;;;;5011791;28;20100;-64
2022/08/17 01:27:16;;;;;;;44.28;32.92;;;;;;;;;;5009123;28;20034;-65
2022/08/17 01:29:44;;;;;;;44.92;32.58;;;;;;;;;;5011486;28;20048;-65
2022/08/17 01:32:11;;;;;;;40.92;32.67;;;;;;;;;;5010197;28;20030;-65
2022/08/17 01:34:37;;;;;;;42.25;31.05;;;;;;;;;;5011102;28;20104;-65
2022/08/17 01:37:03;;;;;;;43.05;31.75;;;;;;;;;;5009737;28;20049;-65
2022/08/17 01:39:34;;;;;;;41.15;31.35;;;;;;;;;;5009199;28;20042;-65
2022/08/17 01:42:00;;;;;;;;;;;;;;;;;;5010728;28;20128;-65
2022/08/17 01:44:27;;;;;;;47.97;32.97;;;;;;;;;;5012335;28;19917;-64
2022/08/17 01:46:53;;;;;;;44.05;32.25;;;;;;;;;;5009027;28;20050;-65
2022/08/17 01:49:19;;;;;;;45.28;32.65;;;;;;;;;;5010915;28;20069;-65
2022/08/17 01:51:45;;;;;;;48.05;33.50;;;;;;;;;;5011259;28;20038;-64
2022/08/17 01:54:13;;;;;;;43.88;33.42;;;;;;;;;;5010889;28;20049;-65
2022/08/17 01:56:41;;;;;;;42.85;32.80;;;;;;;;;;5009438;28;20042;-65
2022/08/17 01:59:07;;;;;;;46.97;33.35;;;;;;;;;;5011009;28;20049;-65
2022/08/17 02:01:34;;;;;;;45.67;34.25;;;;;;;;;;5005932;28;20137;-64
2022/08/17 02:04:00;;;;;;;45.72;34.33;;;;;;;;;;5002147;28;20042;-64
2022/08/17 02:06:27;;;;;;;50.35;34.83;;;;;;;;;;5003533;28;20041;-65
2022/08/17 02:08:53;;;;;;;45.05;33.15;;;;;;;;;;5011361;28;20092;-65
2022/08/17 02:11:20;;;;;;;44.13;31.50;;;;;;;;;;5010545;28;20435;-65
2022/08/17 02:13:50;;;;;;;45.92;32.00;;;;;;;;;;5011612;28;20037;-65
2022/08/17 02:16:17;;;;;;;45.90;32.20;;;;;;;;;;5010619;28;20093;-65
2022/08/17 02:18:43;;;;;;;42.17;30.35;;;;;;;;;;5010585;28;20033;-65
2022/08/17 02:21:09;;;;;;;42.55;30.90;;;;;;;;;;5011137;28;20057;-65
2022/08/17 02:23:37;;;;;;;37.28;28.73;;;;;;;;;;5001584;28;20042;-65
2022/08/17 02:26:04;;;;;;;39.92;29.08;;;;;;;;;;5005912;28;20572;-66
2022/08/17 02:28:30;;;;;;;41.85;30.90;;;;;;;;;;5009586;28;20399;-65
2022/08/17 02:30:57;;;;;;;41.35;30.58;;;;;;;;;;5011124;28;20128;-65
2022/08/17 02:33:23;;;;;;;37.08;28.40;;;;;;;;;;5010133;28;20049;-65
2022/08/17 02:35:49;;;;;;;42.53;31.70;;;;;;;;;;5010999;28;20411;-66
2022/08/17 02:38:16;;;;;;;37.72;30.02;;;;;;;;;;5010754;28;20077;-65
2022/08/17 02:40:42;;;;;;;38.13;27.70;;;;;;;;;;5010519;28;20046;-65
2022/08/17 02:43:08;;;;;;;44.00;30.38;;;;;;;;;;5010418;28;20103;-66
2022/08/17 02:45:35;;;;;;;40.53;30.05;;;;;;;;;;5008822;28;20415;-65
2022/08/17 02:48:02;;;;;;;40.28;30.52;;;;;;;;;;5005261;28;20041;-65
2022/08/17 02:50:28;;;;;;;43.15;31.13;;;;;;;;;;5003041;28;20042;-66
2022/08/17 02:52:54;;;;;;;45.15;33.00;;;;;;;;;;5008991;28;20095;-65
2022/08/17 02:55:22;;;;;;;43.72;31.58;;;;;;;;;;5007422;28;20038;-65
2022/08/17 02:57:48;;;;;;;43.45;30.58;;;;;;;;;;5008958;28;20395;-65
2022/08/17 03:00:20;;;;;;;39.78;29.02;;;;;;;;;;5005135;28;20038;-65
2022/08/17 03:02:46;;;;;;;40.97;29.00;;;;;;;;;;4999956;28;20117;-65
2022/08/17 03:05:13;;;;;;;38.78;28.75;;;;;;;;;;5004284;28;20037;-65
2022/08/17 03:07:39;;;;;;;37.60;28.73;;;;;;;;;;5003408;28;20045;-66
2022/08/17 03:10:06;;;;;;;44.45;31.98;;;;;;;;;;5007561;28;20423;-65
2022/08/17 03:12:33;;;;;;;44.05;31.77;;;;;;;;;;5009987;28;20048;-65
2022/08/17 03:15:02;;;;;;;41.25;31.02;;;;;;;;;;5009455;28;20710;-65
2022/08/17 03:17:28;;;;;;;46.83;32.28;;;;;;;;;;5008085;28;20038;-65
2022/08/17 03:19:54;;;;;;;42.55;31.65;;;;;;;;;;5006044;28;20045;-65
2022/08/17 03:22:20;;;;;;;40.72;31.20;;;;;;;;;;5009379;28;20415;-65
2022/08/17 03:24:46;;;;;;;43.35;30.30;;;;;;;;;;5009046;28;20048;-65
2022/08/17 03:27:12;;;;;;;43.90;30.08;;;;;;;;;;5008953;28;20044;-66
2022/08/17 03:29:39;;;;;;;40.22;29.92;;;;;;;;;;5005010;28;20057;-65
2022/08/17 03:32:12;;;;;;;48.20;32.42;;;;;;;;;;5008172;28;20054;-66
2022/08/17 03:34:38;;;;;;;45.72;33.25;;;;;;;;;;5010116;28;20407;-66
2022/08/17 03:37:04;;;;;;;43.58;32.10;;;;;;;;;;5013341;28;20046;-65
2022/08/17 03:39:30;;;;;;;47.75;34.15;;;;;;;;;;5013655;28;20049;-65
2022/08/17 03:42:07;;;;;;;51.63;34.10;;;;;;;;;;5013743;28;20069;-65
2022/08/17 03:44:34;;;;;;;48.28;35.00;;;;;;;;;;5012103;28;20095;-65
2022/08/17 03:57:59;;;;;;;47.63;35.50;;;;;;;;;;4988194;28;20121;-63
2022/08/17 04:00:26;;;;;;;52.45;37.38;;;;;;;;;;4984415;28;20039;-63
2022/08/17 04:02:53;;;;;;;49.38;35.42;;;;;;;;;;4993866;28;20047;-64
2022/08/17 04:05:19;;;;;;;50.38;35.42;;;;;;;;;;4991675;28;20492;-63
2022/08/17 04:07:45;;;;;;;50.15;35.13;;;;;;;;;;4992584;28;20472;-64
2022/08/17 04:10:12;;;;;;;52.58;35.75;;;;;;;;;;4993550;28;20459;-63
2022/08/17 04:12:53;;;;;;;49.60;35.83;;;;;;;;;;4989823;28;20046;-63
2022/08/17 04:15:20;;;;;;;52.17;36.83;;;;;;;;;;4985289;28;20491;-63
2022/08/17 04:17:46;;;;;;;51.38;37.40;;;;;;;;;;4987714;28;20047;-63
2022/08/17 04:20:13;;;;;;;53.75;37.35;;;;;;;;;;4993361;28;20042;-63
2022/08/17 04:22:40;;;;;;;54.28;36.10;;;;;;;;;;4993535;28;20030;-63
2022/08/17 04:25:08;;;;;;;54.78;37.05;;;;;;;;;;4992781;28;20408;-63
2022/08/17 04:27:34;;;;;;;52.15;37.20;;;;;;;;;;4988651;28;20045;-63
2022/08/17 04:30:00;;;;;;;52.97;37.58;;;;;;;;;;4992978;28;20412;-62
2022/08/17 04:32:27;;;;;;;51.67;36.25;;;;;;;;;;4993912;28;20042;-62
2022/08/17 04:34:52;;;;;;;50.47;35.70;;;;;;;;;;4994038;28;20488;-63
2022/08/17 04:37:18;;;;;;;50.72;35.10;;;;;;;;;;4992423;28;20038;-63
2022/08/17 04:42:05;;;;;;;53.50;36.45;;;;;;;;;;4992380;28;20049;-62
2022/08/17 04:42:31;;;;;;;54.72;37.58;;;;;;;;;;4982418;28;20078;-63
2022/08/17 04:44:57;;;;;;;50.13;34.92;;;;;;;;;;4988328;28;20405;-63
2022/08/17 04:47:23;;;;;;;52.38;36.25;;;;;;;;;;4993404;28;20039;-63
2022/08/17 04:49:49;;;;;;;53.95;38.13;;;;;;;;;;4993566;28;20038;-63
2022/08/17 04:52:15;;;;;;;52.17;37.25;;;;;;;;;;4991864;28;20056;-63
2022/08/17 04:54:41;;;;;;;58.13;39.03;;;;;;;;;;4982054;28;20511;-63
2022/08/17 04:57:07;;;;;;;57.38;39.10;;;;;;;;;;4975571;28;20043;-63
2022/08/17 04:59:33;;;;;;;57.20;38.92;;;;;;;;;;4992550;28;20400;-63
2022/08/17 05:01:59;;;;;;;54.75;39.10;;;;;;;;;;4993831;28;20373;-63
2022/08/17 05:04:25;;;;;;;55.30;38.28;;;;;;;;;;4992472;28;20044;-63
2022/08/17 05:06:53;;;;;;;54.55;37.90;;;;;;;;;;4970129;28;20638;-63
2022/08/17 05:09:19;;;;;;;53.67;38.15;;;;;;;;;;4991779;28;20046;-63
2022/08/17 05:11:46;;;;;;;55.63;38.80;;;;;;;;;;4992798;28;20046;-63
2022/08/17 05:14:12;;;;;;;57.25;38.97;;;;;;;;;;4991750;28;20089;-63
2022/08/17 05:16:38;;;;;;;56.75;37.47;;;;;;;;;;4992818;28;20468;-63
2022/08/17 05:19:04;;;;;;;55.25;38.25;;;;;;;;;;4992477;28;20373;-63
2022/08/17 05:21:30;;;;;;;54.38;37.83;;;;;;;;;;4990723;28;20118;-63
2022/08/17 05:23:59;;;;;;;53.78;37.83;;;;;;;;;;4992800;28;20125;-63
2022/08/17 05:26:26;;;;;;;54.13;38.88;;;;;;;;;;4991951;28;20114;-63
2022/08/17 05:28:52;;;;;;;55.17;38.92;;;;;;;;;;5000877;28;20038;-63
2022/08/17 05:31:18;;;;;;;54.85;38.63;;;;;;;;;;4996083;28;20416;-63
2022/08/17 05:33:45;;;;;;;53.53;38.25;;;;;;;;;;4999543;28;20053;-63
2022/08/17 05:36:12;;;;;;;52.92;38.13;;;;;;;;;;4991474;28;20100;-63
2022/08/17 05:38:38;;;;;;;55.55;38.03;;;;;;;;;;4992058;28;20092;-63
2022/08/17 05:41:05;;;;;;;55.20;37.95;;;;;;;;;;4973771;28;20047;-64
2022/08/17 05:43:33;;;;;;;58.03;39.22;;;;;;;;;;4998506;28;20034;-63
2022/08/17 05:46:02;;;;;;;60.55;40.63;;;;;;;;;;4988044;28;20558;-66
2022/08/17 05:48:30;;;;;;;61.97;40.13;;;;;;;;;;4990538;28;20045;-65
2022/08/17 05:51:15;;;;;;;61.67;40.25;;;;;;;;;;4985333;28;20049;-64
2022/08/17 05:53:47;;;;;;;65.68;42.13;;;;;;;;;;4995296;28;20045;-64
2022/08/17 05:56:17;;;;;;;65.80;41.45;;;;;;;;;;4990482;28;20049;-64
2022/08/17 05:59:06;;;;;;;61.67;41.40;;;;;;;;;;4991345;28;20045;-63
2022/08/17 06:01:46;;;;;;;59.85;40.83;;;;;;;;;;4977233;28;20518;-63
2022/08/17 06:04:21;;;;;;;63.15;40.45;;;;;;;;;;4993177;28;20038;-64
2022/08/17 06:06:51;;;;;;;60.30;41.35;;;;;;;;;;4990103;28;20035;-64
2022/08/17 06:09:29;;;;;;;60.38;40.60;;;;;;;;;;4989454;28;20039;-64
2022/08/17 06:11:59;;;;;;;62.63;40.30;;;;;;;;;;4990189;28;20089;-64
2022/08/17 06:14:25;;;;;;;61.67;40.33;;;;;;;;;;4992474;28;20532;-64
2022/08/17 06:16:54;;;;;;;61.40;40.15;;;;;;;;;;4979126;28;20039;-63
2022/08/17 06:19:38;;;;;;;64.88;41.97;;;;;;;;;;4990514;28;20412;-63
2022/08/17 06:22:05;;;;;;;59.97;42.90;;;;;;;;;;4991587;28;20499;-63
2022/08/17 06:24:34;;;;;;;58.92;40.67;;;;;;;;;;4990299;28;20566;-63
2022/08/17 06:27:09;;;;;;;63.75;41.83;;;;;;;;;;4992048;28;20038;-64
2022/08/17 06:29:36;;;;;;;56.80;41.03;;;;;;;;;;4982584;28;20058;-64
2022/08/17 06:32:02;;;;;;;61.05;41.33;;;;;;;;;;4990198;28;20089;-64
2022/08/17 06:34:28;;;;;;;56.42;39.72;;;;;;;;;;4991398;28;20034;-64
2022/08/17 06:37:04;;;;;;;57.13;38.50;;;;;;;;;;4985093;28;20126;-63
2022/08/17 06:39:49;;;;;;;52.80;38.22;;;;;;;;;;4973069;28;20054;-63
2022/08/17 06:42:18;;;;;;;54.47;38.97;;;;;;;;;;4991367;28;20262;-63
2022/08/17 06:44:54;;;;;;;57.72;40.25;;;;;;;;;;4989487;28;20503;-63
2022/08/17 06:47:40;;;;;;;61.17;41.13;;;;;;;;;;4990856;28;20042;-63
2022/08/17 06:50:26;;;;;;;57.40;40.88;;;;;;;;;;4991390;28;20078;-63
2022/08/17 06:52:54;;;;;;;60.78;41.65;;;;;;;;;;4990737;28;20046;-63
2022/08/17 06:55:25;;;;;;;61.70;39.55;;;;;;;;;;4991769;28;20097;-63
2022/08/17 06:57:53;;;;;;;57.72;39.38;;;;;;;;;;4990443;28;20519;-63
2022/08/17 07:00:21;;;;;;;60.38;40.42;;;;;;;;;;4989977;28;20042;-62
2022/08/17 07:02:52;;;;;;;61.95;41.15;;;;;;;;;;4991066;28;20091;-62
2022/08/17 07:05:20;;;;;;;61.58;40.25;;;;;;;;;;4986115;28;20131;-62
2022/08/17 07:08:00;;;;;;;56.33;40.17;;;;;;;;;;4982239;28;20085;-63
2022/08/17 07:10:27;;;;;;;56.28;39.42;;;;;;;;;;4992820;28;20049;-62
2022/08/17 07:12:55;;;;;;;51.38;36.92;;;;;;;;;;4974619;28;20081;-62
2022/08/17 07:15:24;;;;;;;48.60;35.63;;;;;;;;;;4992515;28;20547;-62
2022/08/17 07:17:51;;;;;;;47.03;34.28;;;;;;;;;;4991414;28;20042;-63
2022/08/17 07:20:21;;;;;;;44.83;34.58;;;;;;;;;;4991983;28;20081;-63
2022/08/17 07:22:57;;;;;;;48.78;35.33;;;;;;;;;;4993407;28;20117;-62
2022/08/17 07:25:24;;;;;;;44.80;34.65;;;;;;;;;;4993850;28;20050;-63
2022/08/17 07:27:58;;;;;;;46.47;34.45;;;;;;;;;;4994109;28;20038;-62
2022/08/17 07:30:26;;;;;;;45.42;34.17;;;;;;;;;;4993200;28;20053;-63
2022/08/17 07:32:56;;;;;;;43.97;31.80;;;;;;;;;;4994153;28;20082;-63
2022/08/17 07:35:28;;;;;;;45.70;34.13;;;;;;;;;;4994436;28;20117;-62
2022/08/17 07:38:13;;;;;;;46.17;34.03;;;;;;;;;;4993350;28;20297;-63
2022/08/17 07:41:00;;;;;;;46.03;32.90;;;;;;;;;;4991376;28;20042;-63
2022/08/17 07:43:39;;;;;;;45.10;33.60;;;;;;;;;;4993609;28;20069;-63
2022/08/17 07:49:07;;;;;;;42.88;32.72;;;;;;;;;;4993611;28;20420;-63
2022/08/17 07:51:39;;;;;;;48.20;33.63;;;;;;;;;;4988841;28;20078;-63
2022/08/17 07:54:14;;;;;;;43.72;32.00;;;;;;;;;;4992696;28;20042;-63
2022/08/17 07:56:49;;;;;;;43.88;32.45;;;;;;;;;;4993777;28;20042;-63
2022/08/17 07:59:18;;;;;;;45.70;32.42;;;;;;;;;;4994422;28;20070;-62
2022/08/17 08:01:47;;;;;;;42.80;32.63;;;;;;;;;;4994126;28;20050;-63
2022/08/17 08:04:36;;;;;;;41.22;31.58;;;;;;;;;;4993795;28;20038;-63
2022/08/17 08:07:19;;;;;;;42.35;32.42;;;;;;;;;;4983166;28;20053;-63
2022/08/17 08:10:03;;;;;;;41.97;32.55;;;;;;;;;;4993345;28;20551;-62
2022/08/17 08:12:37;;;;;;;44.97;31.70;;;;;;;;;;4993564;28;20046;-63
2022/08/17 08:15:21;;;;;;;40.15;30.80;;;;;;;;;;4993289;28;20053;-63
2022/08/17 08:17:53;;;;;;;42.17;31.13;;;;;;;;;;4988462;28;20039;-63
2022/08/17 08:20:24;;;;;;;39.90;28.73;;;;;;;;;;4990451;28;20041;-63
2022/08/17 08:22:51;;;;;;;39.47;29.65;;;;;;;;;;4982418;28;20034;-63
2022/08/17 08:25:20;;;;;;;37.33;28.63;;;;;;;;;;4992013;28;20042;-63
2022/08/17 08:27:54;;;;;;;40.17;30.90;;;;;;;;;;4993033;28;20040;-63
2022/08/17 08:30:21;;;;;;;39.85;29.48;;;;;;;;;;4992953;28;20046;-63
2022/08/17 08:32:55;;;;;;;39.80;30.45;;;;;;;;;;4993875;28;20173;-63
2022/08/17 08:35:30;;;;;;;41.40;30.17;;;;;;;;;;4993663;28;20412;-63
2022/08/17 08:37:59;;;;;;;39.08;29.95;;;;;;;;;;4989712;28;20112;-63
2022/08/17 08:40:37;;;;;;;38.90;29.67;;;;;;;;;;4984724;28;20177;-63
2022/08/17 08:43:11;;;;;;;41.72;31.30;;;;;;;;;;4993464;28;20392;-63
2022/08/17 08:45:48;;;;;;;40.60;31.88;;;;;;;;;;4993191;28;20090;-63
2022/08/17 08:48:33;;;;;;;44.60;31.05;;;;;;;;;;4987321;28;20069;-63
2022/08/17 08:51:11;;;;;;;41.78;30.20;;;;;;;;;;4991717;28;20035;-62
2022/08/17 08:53:37;;;;;;;42.67;31.35;;;;;;;;;;4982015;28;20043;-63
2022/08/17 08:56:11;;;;;;;37.97;31.05;;;;;;;;;;4992630;28;20042;-63
2022/08/17 08:58:53;;;;;;;40.40;30.92;;;;;;;;;;4973578;28;20042;-63
2022/08/17 09:01:27;;;;;;;39.25;30.35;;;;;;;;;;4974196;28;20527;-63
2022/08/17 09:03:58;;;;;;;35.55;28.88;;;;;;;;;;4992534;28;20117;-63
2022/08/17 09:06:37;;;;;;;38.42;29.45;;;;;;;;;;4983607;28;20075;-63
2022/08/17 09:09:17;;;;;;;39.08;29.05;;;;;;;;;;4967315;28;20045;-63
2022/08/17 09:11:54;;;;;;;35.03;28.52;;;;;;;;;;4973678;28;20076;-63
2022/08/17 09:14:39;;;;;;;38.47;28.38;;;;;;;;;;4992845;28;20042;-63
2022/08/17 09:17:21;;;;;;;37.72;29.05;;;;;;;;;;4992889;28;20042;-63
2022/08/17 09:19:59;;;;;;;35.90;27.52;;;;;;;;;;4992400;28;20072;-64
2022/08/17 09:22:48;;;;;;;36.40;28.60;;;;;;;;;;4989685;28;20077;-64
2022/08/17 09:25:20;;;;;;;39.60;28.75;;;;;;;;;;4976375;28;20035;-63
2022/08/17 09:28:04;;;;;;;33.67;25.95;;;;;;;;;;4975797;28;20090;-64
2022/08/17 09:31:01;;;;;;;32.22;25.42;;;;;;;;;;4991359;28;20050;-64
2022/08/17 09:33:27;;;;;;;32.90;25.48;;;;;;;;;;4989180;28;20058;-64
2022/08/17 09:35:56;;;;;;;35.08;26.35;;;;;;;;;;4990502;28;20050;-64
2022/08/17 09:38:25;;;;;;;33.30;26.30;;;;;;;;;;4989150;28;20038;-64
2022/08/17 09:41:11;;;;;;;33.47;25.83;;;;;;;;;;4973443;28;20085;-64
2022/08/17 09:43:53;;;;;;;28.85;23.67;;;;;;;;;;4991596;28;20046;-64
2022/08/17 09:46:28;;;;;;;32.80;24.30;;;;;;;;;;4992737;28;20400;-64
2022/08/17 09:48:57;;;;;;;27.55;22.48;;;;;;;;;;4991399;28;20121;-64
2022/08/17 09:51:32;;;;;;;27.40;21.50;;;;;;;;;;4983891;28;20126;-63
2022/08/17 09:53:59;;;;;;;28.05;21.60;;;;;;;;;;5004864;22;20052;-64
2022/08/17 09:56:55;;;;;;;25.23;20.83;;;;;;;;;;4975664;28;20100;-65
2022/08/17 09:59:39;;;;;;;25.35;20.58;;;;;;;;;;4973602;28;20128;-65
2022/08/17 10:02:24;;;;;;;26.08;20.60;;;;;;;;;;4995201;28;20045;-65
2022/08/17 10:05:03;;;;;;;25.73;20.73;;;;;;;;;;4999274;28;20089;-64
2022/08/17 10:07:35;;;;;;;22.88;18.92;;;;;;;;;;4993270;28;20074;-65
2022/08/17 10:10:04;;;;;;;23.27;18.33;;;;;;;;;;4992338;28;20038;-65
2022/08/17 10:12:34;;;;;;;22.05;18.23;;;;;;;;;;4992950;28;20042;-65
2022/08/17 10:15:15;;;;;;;24.10;18.30;;;;;;;;;;4992739;28;20048;-65
2022/08/17 10:18:07;;;;;;;22.33;18.35;;;;;;;;;;4997186;28;20046;-66
2022/08/17 10:20:36;;;;;;;21.88;18.58;;;;;;;;;;4986516;28;20057;-66
2022/08/17 10:26:12;;;;;;;26.10;20.55;;;;;;;;;;5000641;28;20038;-66
2022/08/17 10:28:44;;;;;;;27.60;21.23;;;;;;;;;;4989752;28;20043;-66
2022/08/17 10:31:17;;;;;;;24.40;20.92;;;;;;;;;;4980587;28;20129;-66
2022/08/17 10:33:55;;;;;;;28.38;21.10;;;;;;;;;;4966939;28;20100;-66
2022/08/17 10:36:26;;;;;;;24.75;20.33;;;;;;;;;;4994224;28;20123;-65
2022/08/17 10:39:18;;;;;;;22.60;19.45;;;;;;;;;;4989152;28;20077;-66
2022/08/17 10:41:46;;;;;;;24.27;20.38;;;;;;;;;;4945715;28;20560;-65
2022/08/17 10:44:20;;;;;;;29.20;21.67;;;;;;;;;;4995039;28;20722;-66
2022/08/17 10:46:53;;;;;;;26.92;22.75;;;;;;;;;;4982871;28;20500;-66
2022/08/17 10:49:22;;;;;;;27.92;21.50;;;;;;;;;;4993992;28;20045;-65
2022/08/17 10:51:51;;;;;;;25.83;19.90;;;;;;;;;;5004198;28;20404;-66
2022/08/17 10:54:23;;;;;;;26.77;20.55;;;;;;;;;;5008533;28;20041;-66
2022/08/17 10:56:49;;;;;;;27.25;19.73;;;;;;;;;;5005047;28;20570;-66
2022/08/17 10:59:34;;;;;;;26.05;20.52;;;;;;;;;;4995250;28;20121;-66
2022/08/17 11:02:00;;;;;;;24.52;19.40;;;;;;;;;;4996287;28;20508;-66
2022/08/17 11:04:32;;;;;;;23.88;18.88;;;;;;;;;;4977187;28;20121;-66
2022/08/17 11:07:07;;;;;;;27.88;20.45;;;;;;;;;;4995809;28;20042;-66
2022/08/17 11:09:42;;;;;;;26.60;20.55;;;;;;;;;;4999473;28;20041;-66
2022/08/17 11:12:14;;;;;;;31.27;21.00;;;;;;;;;;5011355;28;20034;-66
2022/08/17 11:14:49;;;;;;;28.17;20.05;;;;;;;;;;4999340;28;20075;-66
2022/08/17 11:17:18;;;;;;;28.35;21.27;;;;;;;;;;4996482;28;20066;-66
2022/08/17 11:19:56;;;;;;;27.05;22.25;;;;;;;;;;4975146;28;20049;-66
2022/08/17 11:22:40;;;;;;;32.92;23.85;;;;;;;;;;5008460;28;20498;-66
2022/08/17 11:25:10;;;;;;;34.10;24.17;;;;;;;;;;5008147;28;20088;-66
2022/08/17 11:27:37;;;;;;;31.15;24.85;;;;;;;;;;5006879;28;20042;-66
2022/08/17 11:30:10;;;;;;;34.78;24.08;;;;;;;;;;5007871;28;20487;-66
2022/08/17 11:32:39;;;;;;;31.60;23.05;;;;;;;;;;4984126;28;20053;-66
2022/08/17 11:35:20;;;;;;;28.25;22.88;;;;;;;;;;4982537;28;20053;-65
2022/08/17 11:38:05;;;;;;;33.40;23.70;;;;;;;;;;4988410;28;20046;-65
2022/08/17 11:40:37;;;;;;;32.47;23.85;;;;;;;;;;5002417;28;20042;-66
2022/08/17 11:43:16;;;;;;;32.97;22.85;;;;;;;;;;5009855;28;20034;-66
2022/08/17 11:46:01;;;;;;;33.25;23.35;;;;;;;;;;5005008;28;20500;-66
2022/08/17 11:51:32;;;;;;;33.38;24.52;;;;;;;;;;4994376;28;20050;-66
2022/08/17 11:53:58;;;;;;;38.92;27.13;;;;;;;;;;4986377;28;21484;-66
2022/08/17 11:56:39;;;;;;;37.22;27.50;;;;;;;;;;5003397;28;20034;-65
2022/08/17 11:59:24;;;;;;;34.38;26.25;;;;;;;;;;4998530;28;20057;-65
2022/08/17 12:01:53;;;;;;;36.25;25.85;;;;;;;;;;5002908;28;20049;-66
2022/08/17 12:04:27;;;;;;;36.28;26.85;;;;;;;;;;5005678;28;20038;-65
2022/08/17 12:06:58;;;;;;;32.85;25.75;;;;;;;;;;4994117;28;20038;-65
2022/08/17 12:09:27;;;;;;;37.28;25.75;;;;;;;;;;4997784;28;20042;-65
2022/08/17 12:11:55;;;;;;;37.25;27.38;;;;;;;;;;4976216;28;20042;-66
2022/08/17 12:14:25;;;;;;;39.35;27.65;;;;;;;;;;4988833;28;20041;-66
2022/08/17 12:17:17;;;;;;;40.00;28.63;;;;;;;;;;4994044;28;20566;-65
2022/08/17 12:19:43;;;;;;;39.10;28.25;;;;;;;;;;4987355;28;20045;-66
2022/08/17 12:22:19;;;;;;;38.20;28.52;;;;;;;;;;4980383;28;20049;-65
2022/08/17 12:24:58;;;;;;;40.88;30.77;;;;;;;;;;4995482;28;20081;-66
2022/08/17 12:27:32;;;;;;;46.28;33.15;;;;;;;;;;4993206;28;20026;-67
2022/08/17 12:29:59;;;;;;;46.50;32.78;;;;;;;;;;4982487;28;20103;-66
2022/08/17 12:32:32;;;;;;;51.80;35.30;;;;;;;;;;4987168;28;20077;-66
2022/08/17 12:34:58;;;;;;;46.63;32.53;;;;;;;;;;5004022;28;20048;-66
2022/08/17 12:37:26;;;;;;;48.55;35.15;;;;;;;;;;5012444;28;20041;-63
2022/08/17 12:39:55;;;;;;;56.55;36.67;;;;;;;;;;4985888;28;20447;-63
2022/08/17 12:42:22;;;;;;;55.10;36.38;;;;;;;;;;4992208;28;20074;-63
2022/08/17 12:44:48;;;;;;;51.33;35.83;;;;;;;;;;4969839;28;20050;-63
2022/08/17 12:47:17;;;;;;;54.83;36.90;;;;;;;;;;4991454;28;20077;-63
2022/08/17 12:49:48;;;;;;;59.20;38.25;;;;;;;;;;4984507;28;20046;-64
2022/08/17 12:52:16;;;;;;;55.22;38.13;;;;;;;;;;4973659;28;20112;-64
2022/08/17 12:54:48;;;;;;;55.22;38.83;;;;;;;;;;4993457;28;20065;-64
2022/08/17 12:57:17;;;;;;;53.15;36.65;;;;;;;;;;4977019;28;20045;-64
2022/08/17 12:59:45;;;;;;;56.25;37.92;;;;;;;;;;4992574;28;20034;-64
2022/08/17 13:02:19;;;;;;;57.80;38.65;;;;;;;;;;4994739;28;20553;-64
2022/08/17 13:04:45;;;;;;;54.55;35.97;;;;;;;;;;5004883;28;20046;-64
2022/08/17 13:07:13;;;;;;;55.00;37.50;;;;;;;;;;4998138;28;20117;-64
2022/08/17 13:09:39;;;;;;;54.20;37.92;;;;;;;;;;4993015;28;20315;-64
2022/08/17 13:12:05;;;;;;;56.30;37.85;;;;;;;;;;4996010;28;20508;-64
2022/08/17 13:14:31;;;;;;;57.03;39.72;;;;;;;;;;5000011;28;20046;-64
2022/08/17 13:16:59;;;;;;;54.90;38.20;;;;;;;;;;4987100;28;20518;-64
2022/08/17 13:19:29;;;;;;;60.20;40.72;;;;;;;;;;4990264;28;20038;-64
2022/08/17 13:22:00;;;;;;;60.47;41.75;;;;;;;;;;4990668;28;20411;-64
2022/08/17 13:24:30;;;;;;;64.28;41.45;;;;;;;;;;4992450;28;20496;-64
2022/08/17 13:26:59;;;;;;;58.25;40.60;;;;;;;;;;4992833;28;20117;-64
2022/08/17 13:29:27;;;;;;;58.65;40.28;;;;;;;;;;4989839;28;20048;-64
2022/08/17 13:32:16;;;;;;;58.67;38.70;;;;;;;;;;4993538;28;20050;-64
2022/08/17 13:34:43;;;;;;;59.83;39.42;;;;;;;;;;4963025;28;20058;-64
2022/08/17 13:37:31;;;;;;;58.63;42.13;;;;;;;;;;4973736;28;20057;-64
2022/08/17 13:39:57;;;;;;;63.60;41.72;;;;;;;;;;4989889;28;20053;-64
2022/08/17 13:42:41;;;;;;;54.05;40.15;;;;;;;;;;5002481;28;20034;-64
2022/08/17 13:45:26;;;;;;;58.20;40.45;;;;;;;;;;4991636;28;20101;-64
2022/08/17 13:48:05;;;;;;;57.47;40.30;;;;;;;;;;5006767;28;20038;-64
2022/08/17 13:50:31;;;;;;;51.95;37.10;;;;;;;;;;5003854;28;20537;-64
2022/08/17 13:52:57;;;;;;;55.45;38.33;;;;;;;;;;4983942;28;20385;-64
2022/08/17 13:55:24;;;;;;;52.38;38.50;;;;;;;;;;5004067;28;20042;-64
2022/08/17 13:57:52;;;;;;;52.75;37.30;;;;;;;;;;5004800;28;20077;-64
2022/08/17 14:00:34;;;;;;;55.25;39.17;;;;;;;;;;4972076;28;20052;-64
2022/08/17 14:03:01;;;;;;;51.42;37.33;;;;;;;;;;4974272;28;21376;-64
2022/08/17 14:05:28;;;;;;;57.10;40.80;;;;;;;;;;5001065;28;20058;-64
2022/08/17 14:07:55;;;;;;;55.40;39.25;;;;;;;;;;4992713;28;20037;-64
2022/08/17 14:10:21;;;;;;;55.58;39.50;;;;;;;;;;4998867;28;20115;-64
2022/08/17 14:12:49;;;;;;;54.80;39.03;;;;;;;;;;4989781;28;20053;-64
2022/08/17 14:15:16;;;;;;;50.58;38.55;;;;;;;;;;4974003;28;20062;-64
2022/08/17 14:17:42;;;;;;;50.80;37.70;;;;;;;;;;5000626;28;20104;-64
2022/08/17 14:20:10;;;;;;;49.97;37.88;;;;;;;;;;4991362;28;20047;-64
2022/08/17 14:22:37;;;;;;;49.72;37.40;;;;;;;;;;4992338;28;20512;-63
2022/08/17 14:25:04;;;;;;;48.67;36.28;;;;;;;;;;4995638;28;20069;-63
2022/08/17 14:27:32;;;;;;;52.42;37.05;;;;;;;;;;4987704;28;20070;-63
2022/08/17 14:29:59;;;;;;;52.97;38.95;;;;;;;;;;4999855;28;20530;-63
2022/08/17 14:32:29;;;;;;;53.75;40.83;;;;;;;;;;5010398;28;20038;-64
2022/08/17 14:34:56;;;;;;;54.40;38.92;;;;;;;;;;5000001;28;20038;-64
2022/08/17 14:37:25;;;;;;;51.15;38.63;;;;;;;;;;5000308;28;20420;-64
2022/08/17 14:40:01;;;;;;;50.55;38.28;;;;;;;;;;4996547;28;20081;-64
2022/08/17 14:42:30;;;;;;;47.53;38.08;;;;;;;;;;4991372;28;20053;-65
2022/08/17 14:44:57;;;;;;;51.17;38.33;;;;;;;;;;4974218;28;20034;-65
2022/08/17 14:47:25;;;;;;;51.03;38.90;;;;;;;;;;4955231;28;20054;-64
2022/08/17 14:49:51;;;;;;;52.05;38.72;;;;;;;;;;4969700;28;20050;-65
2022/08/17 14:52:20;;;;;;;51.08;39.35;;;;;;;;;;4992839;28;20034;-65
2022/08/17 14:54:47;;;;;;;51.20;38.10;;;;;;;;;;4993700;28;20042;-64
2022/08/17 14:57:16;;;;;;;52.75;39.35;;;;;;;;;;4990923;28;20042;-64
2022/08/17 14:59:42;;;;;;;54.25;38.90;;;;;;;;;;4990737;28;20064;-64